Time;durP1;ratioP1;P1;durP2;ratioP2;P2;SDS_P1;SDS_P2;PMS_P1;PMS_P2;Temp;Humidity;BMP_temperature;BMP_pressure;BME280_temperature;BME280_humidity;BME280_pressure;Samples;Min_cycle;Max_cycle;Signal;HPM_P1;HPM_P2
2021/07/19 00:01:36;;;;;;;;;;;;;;;23.44;75.30;99977.30;1700425;83;20475;-88
2021/07/19 00:04:01;;;;;;;;;;;;;;;23.45;74.10;99981.09;1708198;82;20164;-81
2021/07/19 00:06:27;;;;;;;;;;;;;;;23.40;73.84;99980.19;1706853;82;20451;-78
2021/07/19 00:08:53;;;;;;;;;;;;;;;23.44;74.33;99975.41;1706893;82;20136;-82
2021/07/19 00:11:18;;;;;;;;;;;;;;;23.35;73.55;99980.12;1708739;82;21296;-79
2021/07/19 00:13:46;;;;;;;;;;;;;;;23.42;74.01;99971.35;1708499;82;20187;-77
2021/07/19 00:16:11;;;;;;;;;;;;;;;23.48;73.70;99970.37;1701836;82;20175;-76
2021/07/19 00:18:37;;;;;;;;;;;;;;;23.39;73.53;99967.80;1670506;83;20144;-82
2021/07/19 00:21:03;;;;;;;;;;;;;;;23.46;73.89;99974.66;1713235;82;21028;-79
2021/07/19 00:23:28;;;;;;;;;;;;;;;23.45;73.85;99969.52;1710599;82;21117;-77
2021/07/19 00:25:54;;;;;;;;;;;;;;;23.45;73.74;99977.59;1717951;82;20150;-77
2021/07/19 00:28:19;;;;;;;;;;;;;;;23.42;72.76;99980.78;1699448;82;20311;-78
2021/07/19 00:30:45;;;;;;;;;;;;;;;23.39;72.94;99982.08;1715982;82;20294;-79
2021/07/19 00:33:11;;;;;;;;;;;;;;;23.38;73.51;99983.13;1708882;82;20167;-81
2021/07/19 00:35:36;;;;;;;;;;;;;;;23.32;73.72;99984.14;1704825;82;21090;-77
2021/07/19 00:38:02;;;;;;;;;;;;;;;23.31;73.66;99986.54;1697494;82;20214;-82
2021/07/19 00:40:28;;;;;;;;;;;;;;;23.32;73.10;99986.00;1712659;82;20178;-83
2021/07/19 00:42:54;;;;;;;;;;;;;;;23.30;73.74;99985.73;1702919;82;20186;-82
2021/07/19 00:45:24;;;;;;;;;;;;;;;23.28;72.87;99981.64;1705963;82;20182;-82
2021/07/19 00:47:50;;;;;;;;;;;;;;;23.30;73.03;99980.34;1712689;83;21298;-79
2021/07/19 00:50:15;;;;;;;;;;;;;;;23.34;73.48;99981.17;1712386;82;20258;-78
2021/07/19 00:52:41;;;;;;;;;;;;;;;23.24;72.27;99982.66;1711272;82;20406;-80
2021/07/19 00:55:08;;;;;;;;;;;;;;;23.24;72.28;99985.87;1673009;83;20427;-78
2021/07/19 00:57:35;;;;;;;;;;;;;;;23.24;73.83;99989.40;1714570;82;20175;-79
2021/07/19 01:00:02;;;;;;;;;;;;;;;23.23;72.44;99986.41;1715479;82;21087;-79
2021/07/19 01:02:29;;;;;;;;;;;;;;;23.23;72.93;99988.30;1704921;82;20151;-86
2021/07/19 01:04:55;;;;;;;;;;;;;;;23.25;72.90;99993.70;1714872;82;20174;-78
2021/07/19 01:07:20;;;;;;;;;;;;;;;23.16;71.68;99994.36;1705726;82;20174;-77
2021/07/19 01:09:46;;;;;;;;;;;;;;;23.13;74.36;99998.34;1714147;82;20139;-80
2021/07/19 01:12:13;;;;;;;;;;;;;;;23.06;72.47;100001.71;1711888;82;21923;-76
2021/07/19 01:14:39;;;;;;;;;;;;;;;23.09;72.22;99999.91;1702343;82;20180;-88
2021/07/19 01:17:07;;;;;;;;;;;;;;;23.07;72.03;99999.28;1704991;82;20178;-77
2021/07/19 01:19:33;;;;;;;;;;;;;;;23.10;72.29;100002.87;1715559;83;20155;-81
2021/07/19 01:22:16;;;;;;;;;;;;;;;23.14;72.98;99999.99;1700404;82;20206;-78
2021/07/19 01:24:52;;;;;;;;;;;;;;;23.17;73.23;100001.39;1712077;83;21229;-84
2021/07/19 01:27:45;;;;;;;;;;;;;;;23.14;72.24;99996.49;1702441;82;20163;-77
2021/07/19 01:30:11;;;;;;;;;;;;;;;23.05;72.67;99996.03;1699681;82;20160;-78
2021/07/19 01:32:40;;;;;;;;;;;;;;;22.98;73.48;99998.05;1706799;82;20595;-80
2021/07/19 01:35:06;;;;;;;;;;;;;;;22.97;73.00;99996.43;1709696;82;20162;-76
2021/07/19 01:37:32;;;;;;;;;;;;;;;23.05;73.55;99990.64;1710871;82;21221;-80
2021/07/19 01:39:58;;;;;;;;;;;;;;;23.09;73.09;99999.91;1711117;82;20150;-81
2021/07/19 01:42:25;;;;;;;;;;;;;;;23.12;72.85;99994.84;1710602;82;20106;-79
2021/07/19 01:44:50;;;;;;;;;;;;;;;23.09;72.37;100001.27;1714517;82;20232;-86
2021/07/19 01:47:16;;;;;;;;;;;;;;;23.15;73.19;99998.94;1720255;82;20173;-78
2021/07/19 01:49:41;;;;;;;;;;;;;;;23.17;72.39;99998.70;1677450;82;20250;-77
2021/07/19 01:52:07;;;;;;;;;;;;;;;23.17;72.08;100000.05;1700189;82;21618;-77
2021/07/19 01:54:33;;;;;;;;;;;;;;;23.23;74.37;100001.23;1706661;82;20293;-79
2021/07/19 01:56:59;;;;;;;;;;;;;;;23.25;72.15;99999.09;1707231;82;20174;-82
2021/07/19 01:59:25;;;;;;;;;;;;;;;23.19;71.90;100002.77;1696751;83;20424;-78
2021/07/19 02:01:50;;;;;;;;;;;;;;;22.99;72.69;99993.77;1707677;82;20996;-80
2021/07/19 02:04:16;;;;;;;;;;;;;;;22.91;73.17;100004.40;1707992;82;20187;-79
2021/07/19 02:06:42;;;;;;;;;;;;;;;22.98;73.48;100002.08;1706015;82;20136;-78
2021/07/19 02:09:08;;;;;;;;;;;;;;;23.02;73.68;100003.25;1708498;82;20181;-77
2021/07/19 02:11:34;;;;;;;;;;;;;;;23.04;73.83;100005.16;1711288;82;20477;-89
2021/07/19 02:14:00;;;;;;;;;;;;;;;22.93;73.71;100018.46;1710012;82;21105;-78
2021/07/19 02:16:27;;;;;;;;;;;;;;;22.96;73.16;100019.83;1711247;82;20608;-85
2021/07/19 02:18:53;;;;;;;;;;;;;;;22.99;72.51;100024.73;1707047;82;20195;-78
2021/07/19 02:21:23;;;;;;;;;;;;;;;23.07;72.03;100026.22;1704318;82;21432;-83
2021/07/19 02:23:46;;;;;;;;;;;;;;;23.06;71.47;100025.95;1700374;83;20578;-79
2021/07/19 02:26:12;;;;;;;;;;;;;;;23.01;73.07;100027.19;1707464;82;20989;-78
2021/07/19 02:28:37;;;;;;;;;;;;;;;22.93;72.20;100027.88;1710688;82;20582;-75
2021/07/19 02:31:04;;;;;;;;;;;;;;;22.88;72.54;100038.53;1704610;82;20139;-76
2021/07/19 02:33:31;;;;;;;;;;;;;;;22.74;73.12;100034.50;1708789;82;20837;-77
2021/07/19 02:35:57;;;;;;;;;;;;;;;22.54;73.54;100042.98;1718503;82;20217;-75
2021/07/19 02:38:22;;;;;;;;;;;;;;;22.55;73.40;100038.71;1717385;82;20475;-79
2021/07/19 02:40:48;;;;;;;;;;;;;;;22.54;73.81;100031.72;1714843;82;20768;-83
2021/07/19 02:43:14;;;;;;;;;;;;;;;22.44;72.96;100030.69;1716525;82;20338;-79
2021/07/19 02:45:42;;;;;;;;;;;;;;;22.55;72.59;100027.95;1715820;82;20732;-76
2021/07/19 02:48:08;;;;;;;;;;;;;;;22.38;73.68;100025.72;1702588;82;20187;-76
2021/07/19 02:50:34;;;;;;;;;;;;;;;22.34;73.14;100029.42;1707951;82;21891;-79
2021/07/19 02:53:02;;;;;;;;;;;;;;;22.34;73.03;100027.23;1702438;82;20473;-77
2021/07/19 02:55:29;;;;;;;;;;;;;;;22.30;72.04;100027.41;1709025;82;20175;-82
2021/07/19 02:57:55;;;;;;;;;;;;;;;22.28;70.71;100037.56;1664705;83;21594;-76
2021/07/19 03:00:21;;;;;;;;;;;;;;;22.24;69.50;100038.58;1713045;82;20545;-77
2021/07/19 03:02:48;;;;;;;;;;;;;;;22.16;68.77;100046.48;1714306;83;21092;-88
2021/07/19 03:05:14;;;;;;;;;;;;;;;22.14;68.59;100036.48;1711457;82;20150;-76
2021/07/19 03:07:40;;;;;;;;;;;;;;;22.09;67.95;100040.39;1705222;82;20205;-76
2021/07/19 03:10:08;;;;;;;;;;;;;;;22.04;67.31;100038.94;1710283;82;20155;-77
2021/07/19 03:12:36;;;;;;;;;;;;;;;21.95;66.44;100039.00;1706715;82;20174;-77
2021/07/19 03:15:02;;;;;;;;;;;;;;;21.98;67.09;100038.00;1716441;83;21146;-83
2021/07/19 03:17:27;;;;;;;;;;;;;;;21.85;65.74;100048.47;1710920;82;20511;-84
2021/07/19 03:19:54;;;;;;;;;;;;;;;21.81;63.99;100050.00;1707386;82;20138;-80
2021/07/19 03:22:20;;;;;;;;;;;;;;;21.53;64.70;100049.84;1714651;83;20291;-77
2021/07/19 03:24:45;;;;;;;;;;;;;;;21.59;64.38;100054.29;1708691;82;20152;-80
2021/07/19 03:27:11;;;;;;;;;;;;;;;21.42;63.80;100057.60;1709605;82;21199;-78
2021/07/19 03:29:37;;;;;;;;;;;;;;;21.34;63.65;100063.31;1716565;82;20592;-78
2021/07/19 03:32:03;;;;;;;;;;;;;;;21.35;63.71;100066.30;1707250;82;20165;-81
2021/07/19 03:34:29;;;;;;;;;;;;;;;21.06;63.79;100068.77;1704242;82;20662;-76
2021/07/19 03:36:56;;;;;;;;;;;;;;;21.13;63.91;100060.10;1707921;82;20218;-77
2021/07/19 03:39:21;;;;;;;;;;;;;;;21.04;63.69;100053.41;1672211;83;21898;-76
2021/07/19 03:41:52;;;;;;;;;;;;;;;20.98;64.22;100054.32;1699899;82;20847;-80
2021/07/19 03:44:19;;;;;;;;;;;;;;;20.94;64.27;100057.99;1705556;82;20170;-78
2021/07/19 03:46:47;;;;;;;;;;;;;;;20.99;65.19;100050.59;1711237;82;20279;-76
2021/07/19 03:49:13;;;;;;;;;;;;;;;21.03;64.25;100057.13;1705664;82;20457;-77
2021/07/19 03:51:38;;;;;;;;;;;;;;;21.13;65.51;100060.10;1715345;82;21234;-80
2021/07/19 03:54:04;;;;;;;;;;;;;;;21.19;64.34;100062.91;1715404;82;20213;-79
2021/07/19 03:56:30;;;;;;;;;;;;;;;21.26;65.78;100063.65;1712683;83;20177;-85
2021/07/19 03:58:57;;;;;;;;;;;;;;;21.30;64.29;100067.50;1712968;82;20103;-78
2021/07/19 04:01:23;;;;;;;;;;;;;;;21.21;64.70;100068.86;1711527;82;20136;-79
2021/07/19 04:03:52;;;;;;;;;;;;;;;21.26;65.32;100064.99;1715713;82;21082;-81
2021/07/19 04:06:17;;;;;;;;;;;;;;;21.09;65.45;100061.59;1717239;82;20472;-83
2021/07/19 04:08:42;;;;;;;;;;;;;;;21.14;65.79;100063.06;1704391;82;21049;-78
2021/07/19 04:11:08;;;;;;;;;;;;;;;21.04;65.90;100065.50;1707135;83;20133;-77
2021/07/19 04:13:36;;;;;;;;;;;;;;;20.90;66.65;100060.02;1710516;82;20268;-78
2021/07/19 04:16:02;;;;;;;;;;;;;;;20.86;66.90;100067.67;1678092;83;21170;-77
2021/07/19 04:18:28;;;;;;;;;;;;;;;20.76;67.16;100073.59;1705612;82;20463;-83
2021/07/19 04:20:54;;;;;;;;;;;;;;;20.58;67.45;100068.20;1707163;82;20202;-84
2021/07/19 04:23:20;;;;;;;;;;;;;;;20.53;67.50;100070.75;1699936;82;20487;-86
2021/07/19 04:25:46;;;;;;;;;;;;;;;20.61;68.03;100071.25;1677213;82;20471;-76
2021/07/19 04:28:17;;;;;;;;;;;;;;;20.62;67.89;100069.41;1711010;82;21065;-87
2021/07/19 04:30:46;;;;;;;;;;;;;;;20.68;67.94;100064.52;1706500;82;20148;-87
2021/07/19 04:33:17;;;;;;;;;;;;;;;20.63;67.43;100068.34;1715955;82;20210;-80
2021/07/19 04:35:45;;;;;;;;;;;;;;;20.60;67.21;100082.20;1717430;82;20194;-78
2021/07/19 04:38:11;;;;;;;;;;;;;;;20.40;67.58;100074.37;1703663;83;20195;-78
2021/07/19 04:40:36;;;;;;;;;;;;;;;20.28;68.31;100072.97;1715458;82;21123;-80
2021/07/19 04:43:02;;;;;;;;;;;;;;;20.36;68.07;100068.64;1713567;82;20181;-91
2021/07/19 04:45:27;;;;;;;;;;;;;;;20.39;68.14;100072.22;1708708;82;20158;-79
2021/07/19 04:47:53;;;;;;;;;;;;;;;20.34;68.19;100069.40;1708941;82;21293;-79
2021/07/19 04:50:18;;;;;;;;;;;;;;;20.31;68.36;100077.89;1710021;82;20187;-78
2021/07/19 04:52:44;;;;;;;;;;;;;;;20.29;68.42;100079.98;1709488;82;21059;-79
2021/07/19 04:55:11;;;;;;;;;;;;;;;20.30;68.79;100074.90;1683175;82;20276;-78
2021/07/19 04:57:38;;;;;;;;;;;;;;;20.30;68.70;100073.55;1698222;82;20142;-79
2021/07/19 05:00:04;;;;;;;;;;;;;;;20.32;68.70;100075.48;1715170;82;20143;-80
2021/07/19 05:02:29;;;;;;;;;;;;;;;20.38;68.53;100073.78;1709287;82;20145;-81
2021/07/19 05:04:56;;;;;;;;;;;;;;;20.45;67.70;100078.04;1713306;82;21058;-77
2021/07/19 05:07:23;;;;;;;;;;;;;;;20.54;68.04;100080.41;1714640;82;20186;-78
2021/07/19 05:09:51;;;;;;;;;;;;;;;20.71;67.62;100092.24;1711282;82;20153;-81
2021/07/19 05:12:19;;;;;;;;;;;;;;;20.70;66.70;100089.25;1717626;82;20171;-76
2021/07/19 05:14:44;;;;;;;;;;;;;;;20.82;66.54;100089.33;1717717;83;20437;-76
2021/07/19 05:17:10;;;;;;;;;;;;;;;20.80;66.95;100086.02;1708181;82;21033;-76
2021/07/19 05:19:39;;;;;;;;;;;;;;;20.88;66.77;100088.92;1684135;83;20212;-78
2021/07/19 05:22:13;;;;;;;;;;;;;;;20.88;66.80;100088.92;1712228;82;20214;-76
2021/07/19 05:24:39;;;;;;;;;;;;;;;20.68;67.39;100092.69;1713251;82;20159;-79
2021/07/19 05:27:06;;;;;;;;;;;;;;;20.68;67.81;100098.05;1713121;82;20136;-77
2021/07/19 05:29:33;;;;;;;;;;;;;;;20.68;68.34;100095.38;1707782;82;21944;-78
2021/07/19 05:31:58;;;;;;;;;;;;;;;20.85;68.28;100100.11;1698453;83;20138;-84
2021/07/19 05:34:24;;;;;;;;;;;;;;;20.74;67.48;100101.69;1710833;82;20167;-78
2021/07/19 05:36:49;;;;;;;;;;;;;;;20.87;67.43;100103.41;1708971;82;20208;-78
2021/07/19 05:39:15;;;;;;;;;;;;;;;20.91;67.81;100104.58;1706184;82;20166;-81
2021/07/19 05:41:41;;;;;;;;;;;;;;;20.82;67.97;100103.25;1711456;82;21059;-77
2021/07/19 05:44:06;;;;;;;;;;;;;;;20.72;67.86;100101.91;1703035;82;20269;-77
2021/07/19 05:46:33;;;;;;;;;;;;;;;20.88;67.73;100106.38;1714593;82;20144;-76
2021/07/19 05:48:58;;;;;;;;;;;;;;;21.02;67.69;100107.88;1709368;82;20175;-80
2021/07/19 05:51:24;;;;;;;;;;;;;;;21.10;67.25;100114.27;1712314;82;20115;-77
2021/07/19 05:53:49;;;;;;;;;;;;;;;21.16;67.39;100114.70;1712341;82;21059;-81
2021/07/19 05:56:15;;;;;;;;;;;;;;;21.18;66.76;100109.60;1709410;82;20491;-81
2021/07/19 05:58:40;;;;;;;;;;;;;;;21.18;66.37;100120.34;1713961;82;20254;-77
2021/07/19 06:01:06;;;;;;;;;;;;;;;21.25;66.41;100115.18;1705788;82;20444;-77
2021/07/19 06:03:32;;;;;;;;;;;;;;;21.39;66.22;100114.48;1710496;82;20143;-83
2021/07/19 06:05:57;;;;;;;;;;;;;;;21.37;65.83;100115.23;1708726;82;21870;-87
2021/07/19 06:08:23;;;;;;;;;;;;;;;21.26;65.20;100111.99;1697982;82;20138;-90
2021/07/19 06:10:48;;;;;;;;;;;;;;;21.33;65.44;100116.23;1708386;82;20492;-80
2021/07/19 06:13:14;;;;;;;;;;;;;;;21.43;65.76;100110.30;1705567;82;20172;-78
2021/07/19 06:15:39;;;;;;;;;;;;;;;21.43;65.61;100110.83;1705459;82;20228;-85
2021/07/19 06:18:05;;;;;;;;;;;;;;;21.45;65.60;100117.59;1716215;83;21839;-80
2021/07/19 06:20:30;;;;;;;;;;;;;;;21.66;64.85;100111.45;1708439;82;20265;-77
2021/07/19 06:23:00;;;;;;;;;;;;;;;21.56;63.48;100111.98;1715314;82;20146;-77
2021/07/19 06:25:25;;;;;;;;;;;;;;;21.75;64.02;100110.07;1701455;82;20147;-79
2021/07/19 06:27:50;;;;;;;;;;;;;;;21.88;63.15;100115.21;1710401;82;20142;-86
2021/07/19 06:30:16;;;;;;;;;;;;;;;21.92;62.52;100112.87;1705493;82;21135;-80
2021/07/19 06:32:43;;;;;;;;;;;;;;;21.73;60.61;100109.45;1705403;82;20136;-83
2021/07/19 06:35:10;;;;;;;;;;;;;;;21.65;60.28;100110.61;1707430;82;20108;-81
2021/07/19 06:37:35;;;;;;;;;;;;;;;21.94;62.13;100113.98;1705404;82;20203;-80
2021/07/19 06:40:01;;;;;;;;;;;;;;;21.93;61.15;100115.05;1693808;83;20266;-80
2021/07/19 06:42:26;;;;;;;;;;;;;;;21.77;61.52;100115.21;1703783;83;21863;-78
2021/07/19 06:44:56;;;;;;;;;;;;;;;21.96;61.77;100117.28;1715211;82;20140;-80
2021/07/19 06:47:23;;;;;;;;;;;;;;;22.10;62.14;100120.03;1715663;82;20454;-79
2021/07/19 06:49:48;;;;;;;;;;;;;;;22.06;61.17;100114.81;1713052;82;20216;-81
2021/07/19 06:52:16;;;;;;;;;;;;;;;22.15;60.99;100114.76;1717236;82;20194;-84
2021/07/19 06:54:41;;;;;;;;;;;;;;;22.08;61.37;100118.61;1715590;83;20531;-79
2021/07/19 06:57:07;;;;;;;;;;;;;;;21.81;61.51;100126.62;1698770;82;20604;-80
2021/07/19 06:59:32;;;;;;;;;;;;;;;21.75;62.09;100115.44;1713547;82;20134;-80
2021/07/19 07:01:58;;;;;;;;;;;;;;;21.86;62.12;100121.36;1709531;82;20138;-79
2021/07/19 07:04:23;;;;;;;;;;;;;;;21.94;61.21;100118.85;1702032;82;20155;-76
2021/07/19 07:06:49;;;;;;;;;;;;;;;21.80;61.09;100122.28;1702041;82;21225;-79
2021/07/19 07:09:14;;;;;;;;;;;;;;;21.70;61.04;100131.42;1700885;82;20471;-79
2021/07/19 07:11:40;;;;;;;;;;;;;;;21.57;60.34;100127.08;1712929;82;20130;-78
2021/07/19 07:14:07;;;;;;;;;;;;;;;21.56;60.16;100127.30;1711694;82;20177;-77
2021/07/19 07:16:33;;;;;;;;;;;;;;;21.51;60.40;100126.11;1718998;82;20171;-87
2021/07/19 07:18:59;;;;;;;;;;;;;;;21.67;60.68;100126.50;1711097;82;21093;-85
2021/07/19 07:21:24;;;;;;;;;;;;;;;21.61;59.96;100123.39;1699623;82;20187;-78
2021/07/19 07:23:50;;;;;;;;;;;;;;;21.53;60.27;100125.08;1714536;82;20456;-79
2021/07/19 07:26:16;;;;;;;;;;;;;;;21.57;60.03;100131.64;1703500;82;20293;-76
2021/07/19 07:28:41;;;;;;;;;;;;;;;21.73;60.17;100116.71;1704535;82;20632;-85
2021/07/19 07:31:10;;;;;;;;;;;;;;;21.76;60.30;100126.47;1705448;82;21201;-76
2021/07/19 07:33:34;;;;;;;;;;;;;;;21.63;60.82;100130.72;1699223;82;20716;-76
2021/07/19 07:36:00;;;;;;;;;;;;;;;21.62;61.85;100123.70;1706767;82;21721;-77
2021/07/19 07:38:25;;;;;;;;;;;;;;;21.64;60.57;100132.34;1703206;82;20682;-80
2021/07/19 07:40:52;;;;;;;;;;;;;;;21.62;60.90;100126.38;1712369;83;20179;-77
2021/07/19 07:43:18;;;;;;;;;;;;;;;21.83;61.11;100125.85;1704398;82;21826;-78
2021/07/19 07:45:43;;;;;;;;;;;;;;;21.79;60.33;100127.35;1711093;82;20363;-79
2021/07/19 07:48:09;;;;;;;;;;;;;;;21.99;60.30;100118.16;1696572;82;20559;-77
2021/07/19 07:50:35;;;;;;;;;;;;;;;22.18;60.59;100120.20;1712388;82;20158;-79
2021/07/19 07:53:00;;;;;;;;;;;;;;;22.22;59.41;100128.92;1717285;82;20443;-85
2021/07/19 07:55:26;;;;;;;;;;;;;;;22.19;59.77;100122.66;1712254;82;21077;-88
2021/07/19 07:57:51;;;;;;;;;;;;;;;22.19;59.13;100113.25;1700320;82;20150;-80
2021/07/19 08:00:18;;;;;;;;;;;;;;;22.17;59.68;100115.36;1708129;82;20161;-76
2021/07/19 08:02:44;;;;;;;;;;;;;;;21.97;59.72;100117.55;1712999;82;20185;-78
2021/07/19 08:05:11;;;;;;;;;;;;;;;22.07;59.67;100107.05;1702534;82;20227;-79
2021/07/19 08:07:36;;;;;;;;;;;;;;;22.19;60.29;100113.25;1709465;82;21045;-82
2021/07/19 08:10:04;;;;;;;;;;;;;;;22.13;59.47;100112.03;1712309;82;21199;-82
2021/07/19 08:12:29;;;;;;;;;;;;;;;22.27;59.26;100108.58;1706381;82;20222;-77
2021/07/19 08:14:56;;;;;;;;;;;;;;;22.17;59.93;100114.52;1703235;82;20161;-77
2021/07/19 08:17:22;;;;;;;;;;;;;;;22.28;59.78;100112.89;1702482;82;20209;-80
2021/07/19 08:19:48;;;;;;;;;;;;;;;22.21;59.81;100117.86;1705939;82;21117;-83
2021/07/19 08:22:13;;;;;;;;;;;;;;;22.40;59.46;100114.57;1712163;82;20622;-86
2021/07/19 08:24:40;;;;;;;;;;;;;;;22.52;58.09;100114.54;1701052;82;20208;-78
2021/07/19 08:27:05;;;;;;;;;;;;;;;22.62;57.50;100113.12;1707324;82;20143;-77
2021/07/19 08:29:31;;;;;;;;;;;;;;;22.53;57.02;100111.34;1711104;82;20134;-75
2021/07/19 08:31:57;;;;;;;;;;;;;;;22.54;55.30;100111.11;1700076;82;21948;-88
2021/07/19 08:34:22;;;;;;;;;;;;;;;22.61;55.65;100110.12;1711718;82;20331;-76
2021/07/19 08:36:49;;;;;;;;;;;;;;;22.64;56.55;100109.15;1709242;82;20980;-84
2021/07/19 08:39:15;;;;;;;;;;;;;;;22.68;56.30;100113.52;1712578;82;20206;-77
2021/07/19 08:41:41;;;;;;;;;;;;;;;22.80;56.56;100112.97;1702616;82;20182;-82
2021/07/19 08:44:08;;;;;;;;;;;;;;;22.76;56.77;100115.33;1708059;83;21072;-76
2021/07/19 08:46:35;;;;;;;;;;;;;;;22.58;55.88;100113.59;1718757;82;20120;-83
2021/07/19 08:49:01;;;;;;;;;;;;;;;22.70;56.92;100116.78;1717249;82;20190;-81
2021/07/19 08:51:26;;;;;;;;;;;;;;;22.76;57.07;100114.49;1704090;82;20221;-76
2021/07/19 08:53:52;;;;;;;;;;;;;;;22.81;56.67;100106.53;1707502;82;20133;-80
2021/07/19 08:56:18;;;;;;;;;;;;;;;22.85;56.04;100099.59;1716966;82;21248;-77
2021/07/19 08:58:43;;;;;;;;;;;;;;;22.80;54.99;100106.23;1711878;83;20262;-82
2021/07/19 09:01:09;;;;;;;;;;;;;;;22.76;54.09;100122.56;1705846;82;20181;-76
2021/07/19 09:03:35;;;;;;;;;;;;;;;22.86;53.72;100121.44;1711368;82;20468;-82
2021/07/19 09:06:00;;;;;;;;;;;;;;;22.75;53.87;100120.95;1714520;83;20183;-79
2021/07/19 09:08:26;;;;;;;;;;;;;;;22.81;53.98;100106.53;1700335;82;21259;-76
2021/07/19 09:10:51;;;;;;;;;;;;;;;23.05;54.55;100106.45;1714122;82;20461;-76
2021/07/19 09:13:19;;;;;;;;;;;;;;;23.13;54.13;100108.79;1704311;82;20166;-88
2021/07/19 09:15:45;;;;;;;;;;;;;;;23.16;55.05;100107.50;1707836;82;20190;-75
2021/07/19 09:18:10;;;;;;;;;;;;;;;22.98;54.74;100106.61;1700464;83;20292;-77
2021/07/19 09:20:39;;;;;;;;;;;;;;;22.98;53.79;100111.16;1703175;82;21106;-85
2021/07/19 09:23:05;;;;;;;;;;;;;;;23.19;54.90;100105.13;1702881;82;20173;-81
2021/07/19 09:25:31;;;;;;;;;;;;;;;23.16;54.76;100110.20;1705224;82;20167;-78
2021/07/19 09:28:08;;;;;;;;;;;;;;;23.18;54.68;100126.93;1712197;82;20115;-83
2021/07/19 09:30:35;;;;;;;;;;;;;;;23.32;54.19;100103.20;1708911;82;20435;-77
2021/07/19 09:33:09;;;;;;;;;;;;;;;23.35;54.53;100115.66;1703652;82;21829;-78
2021/07/19 09:35:42;;;;;;;;;;;;;;;23.55;54.17;100105.77;1706028;82;20194;-76
2021/07/19 09:38:10;;;;;;;;;;;;;;;23.61;53.71;100099.41;1705599;82;20174;-86
2021/07/19 09:40:37;;;;;;;;;;;;;;;23.55;53.40;100117.91;1713704;83;20151;-78
2021/07/19 09:43:17;;;;;;;;;;;;;;;23.45;53.49;100111.00;1694400;82;20162;-79
2021/07/19 09:45:43;;;;;;;;;;;;;;;23.36;53.26;100113.80;1700430;82;21153;-77
2021/07/19 09:48:08;;;;;;;;;;;;;;;23.47;53.43;100108.33;1713925;82;20187;-84
2021/07/19 09:50:44;;;;;;;;;;;;;;;23.53;53.11;100107.91;1709607;82;20225;-80
2021/07/19 09:53:12;;;;;;;;;;;;;;;23.53;53.91;100105.20;1702442;82;20278;-74
2021/07/19 09:55:38;;;;;;;;;;;;;;;23.71;53.15;100102.83;1709189;82;20209;-76
2021/07/19 09:58:03;;;;;;;;;;;;;;;23.92;53.58;100093.20;1708037;82;21055;-76
2021/07/19 10:00:30;;;;;;;;;;;;;;;24.00;52.79;100099.55;1693052;83;20660;-74
2021/07/19 10:02:55;;;;;;;;;;;;;;;23.91;53.25;100103.72;1712582;82;20433;-74
2021/07/19 10:05:29;;;;;;;;;;;;;;;23.85;52.50;100099.30;1694875;82;20134;-76
2021/07/19 10:07:55;;;;;;;;;;;;;;;23.87;51.80;100112.55;1706571;82;20508;-80
2021/07/19 10:10:37;;;;;;;;;;;;;;;23.73;51.64;100106.62;1712432;82;21092;-77
2021/07/19 10:13:04;;;;;;;;;;;;;;;23.70;51.67;100103.07;1706604;82;20433;-77
2021/07/19 10:15:31;;;;;;;;;;;;;;;23.83;51.98;100098.69;1708146;82;20151;-77
2021/07/19 10:17:56;;;;;;;;;;;;;;;23.75;52.20;100093.70;1682612;83;20217;-77
2021/07/19 10:20:22;;;;;;;;;;;;;;;23.59;52.56;100115.02;1711389;82;20150;-75
2021/07/19 10:22:48;;;;;;;;;;;;;;;23.44;53.45;100103.97;1706062;82;21023;-77
2021/07/19 10:25:15;;;;;;;;;;;;;;;23.42;53.35;100100.17;1672685;83;40247;-75
2021/07/19 10:27:41;;;;;;;;;;;;;;;23.57;53.38;100092.89;1702369;82;20643;-81
2021/07/19 10:30:09;;;;;;;;;;;;;;;23.81;52.81;100094.08;1709833;82;20173;-76
2021/07/19 10:32:36;;;;;;;;;;;;;;;23.78;51.56;100090.52;1709462;82;20167;-82
2021/07/19 10:35:01;;;;;;;;;;;;;;;23.73;51.90;100094.49;1709642;82;21967;-77
2021/07/19 10:37:53;;;;;;;;;;;;;;;23.56;52.46;100093.94;1705994;83;20162;-77
2021/07/19 10:40:28;;;;;;;;;;;;;;;23.74;52.91;100089.37;1710467;83;20206;-79
2021/07/19 10:43:11;;;;;;;;;;;;;;;23.78;53.15;100092.67;1712728;82;20329;-77
2021/07/19 10:45:53;;;;;;;;;;;;;;;23.86;52.91;100080.70;1684809;83;20194;-83
2021/07/19 10:48:24;;;;;;;;;;;;;;;23.81;51.72;100086.80;1699189;83;21156;-79
2021/07/19 10:50:51;;;;;;;;;;;;;;;23.96;50.78;100087.61;1699998;82;21054;-88
2021/07/19 10:53:21;;;;;;;;;;;;;;;24.19;50.56;100081.71;1702323;82;20151;-77
2021/07/19 10:56:06;;;;;;;;;;;;;;;24.43;51.14;100070.72;1702030;82;20143;-79
2021/07/19 10:58:39;;;;;;;;;;;;;;;24.42;51.00;100084.73;1704212;82;20502;-80
2021/07/19 11:01:05;;;;;;;;;;;;;;;24.54;50.41;100069.23;1699079;82;22370;-77
2021/07/19 11:03:38;;;;;;;;;;;;;;;24.69;50.39;100076.75;1704921;83;20447;-76
2021/07/19 11:06:04;;;;;;;;;;;;;;;24.76;49.06;100066.29;1700740;83;20171;-76
2021/07/19 11:08:29;;;;;;;;;;;;;;;24.61;49.76;100072.31;1698621;82;21143;-81
2021/07/19 11:10:56;;;;;;;;;;;;;;;24.62;49.27;100081.51;1702810;82;20184;-81
2021/07/19 11:13:34;;;;;;;;;;;;;;;24.52;49.58;100071.92;1709413;82;21070;-77
2021/07/19 11:16:00;;;;;;;;;;;;;;;24.49;49.30;100068.38;1703134;83;20229;-83
2021/07/19 11:18:32;;;;;;;;;;;;;;;24.55;49.11;100075.47;1705070;82;20136;-81
2021/07/19 11:20:59;;;;;;;;;;;;;;;24.63;49.16;100076.41;1710044;82;20172;-87
2021/07/19 11:23:31;;;;;;;;;;;;;;;24.52;48.65;100073.27;1705499;82;20163;-76
2021/07/19 11:26:00;;;;;;;;;;;;;;;24.67;49.30;100073.49;1703755;82;21960;-76
2021/07/19 11:28:28;;;;;;;;;;;;;;;24.59;48.25;100068.52;1707535;82;20300;-84
2021/07/19 11:31:02;;;;;;;;;;;;;;;24.58;48.25;100073.65;1711262;82;20124;-76
2021/07/19 11:33:34;;;;;;;;;;;;;;;24.44;48.05;100064.23;1686449;82;20870;-81
2021/07/19 11:36:01;;;;;;;;;;;;;;;24.33;48.74;100062.77;1701863;82;21120;-78
2021/07/19 11:38:36;;;;;;;;;;;;;;;24.61;49.21;100061.00;1696536;82;21028;-76
2021/07/19 11:41:14;;;;;;;;;;;;;;;24.41;48.85;100057.47;1705721;82;20396;-81
2021/07/19 11:43:40;;;;;;;;;;;;;;;24.44;48.25;100061.02;1708809;82;20170;-77
2021/07/19 11:46:05;;;;;;;;;;;;;;;24.64;47.97;100051.05;1696815;82;20146;-75
2021/07/19 11:48:31;;;;;;;;;;;;;;;24.75;48.68;100049.80;1715899;82;20149;-81
2021/07/19 11:50:57;;;;;;;;;;;;;;;24.84;47.34;100059.08;1704937;83;20738;-82
2021/07/19 11:53:23;;;;;;;;;;;;;;;24.92;46.78;100047.81;1709415;82;20252;-78
2021/07/19 11:55:49;;;;;;;;;;;;;;;24.98;47.91;100045.45;1702448;82;20155;-79
2021/07/19 11:58:15;;;;;;;;;;;;;;;24.97;47.71;100055.16;1715054;83;20321;-78
2021/07/19 12:00:44;;;;;;;;;;;;;;;24.86;47.71;100047.48;1709547;82;20142;-77
2021/07/19 12:03:12;;;;;;;;;;;;;;;24.77;47.76;100047.67;1706913;82;20151;-79
2021/07/19 12:05:39;;;;;;;;;;;;;;;24.80;48.61;100044.47;1704648;82;20187;-83
2021/07/19 12:08:07;;;;;;;;;;;;;;;24.89;48.79;100051.02;1708436;82;20131;-79
2021/07/19 12:10:37;;;;;;;;;;;;;;;24.88;48.27;100044.81;1700832;82;21883;-81
2021/07/19 12:13:10;;;;;;;;;;;;;;;24.78;48.18;100037.13;1702829;82;20154;-77
2021/07/19 12:15:37;;;;;;;;;;;;;;;24.96;48.68;100039.49;1697997;82;21006;-80
2021/07/19 12:18:02;;;;;;;;;;;;;;;25.30;49.09;100042.56;1712897;82;20118;-80
2021/07/19 12:20:30;;;;;;;;;;;;;;;25.29;47.29;100055.23;1699096;82;20463;-82
2021/07/19 12:22:55;;;;;;;;;;;;;;;25.40;46.92;100042.12;1704854;82;20500;-79
2021/07/19 12:25:21;;;;;;;;;;;;;;;25.02;46.39;100053.34;1709611;82;20139;-77
2021/07/19 12:28:00;;;;;;;;;;;;;;;25.17;46.88;100045.09;1702051;82;22379;-82
2021/07/19 12:30:28;;;;;;;;;;;;;;;25.13;47.13;100046.69;1701096;82;20131;-84
2021/07/19 12:32:53;;;;;;;;;;;;;;;25.24;47.05;100056.52;1706573;82;20240;-78
2021/07/19 12:35:23;;;;;;;;;;;;;;;25.16;47.42;100040.78;1706939;82;20138;-80
2021/07/19 12:37:57;;;;;;;;;;;;;;;25.40;47.46;100040.77;1705050;82;20156;-76